Tiempo atmosférico en la estación meteorológica de Cervera De Pisuerga, Palencia (1140 m.)

Fecha
DESCASC
Temp. máxima en grados centígrados (hora)
DESCASC
Temp. mínima en grados centígrados (hora)
DESCASC
Temp. media en grados centígrados
DESCASC
Racha de viento máxima en m/sg (hora)
DESCASC
Velocidad máxima media en intervalos de 10 minutos(hora)
DESCASC
Precipitaciones diarias en mm
DESCASC
Precipitaciones de 00:00 a 06:00 en mm
DESCASC
Precipitaciones de 06:00 a 12:00 en mm
DESCASC
Precipitaciones de 12:00 a 18:00 en mm
DESCASC
Precipitaciones de 18:00 a 24:00 en mm
DESCASC
22-10-2017 16 (15:40) 1 (08:00) 8.5 7.5 (12:50) 4.72 (18:00) 0 0 0 0 0
21-10-2017 18 (14:10) 5.4 (23:30) 11.7 11.39 (02:50) 5.83 (11:50) 0.4 0.2 0.2 0 0
20-10-2017 20.5 (14:40) 5.9 (03:50) 13.2 11.11 (16:10) 6.39 (16:10) 0 0 0 0 0
19-10-2017 16 (15:20) 1.6 (00:00) 8.8 8.06 (17:00) 4.72 (14:10) 0 0 0 0 0
18-10-2017 11.3 (15:50) 6.3 (00:00) 8.8 11.67 (01:40) 5.28 (00:40) 1 0 0.4 0.6 0
17-10-2017 15.2 (12:30) 10.4 (00:00) 12.8 16.11 (16:20) 8.06 (16:30) 2.6 0 0 1.6 1
16-10-2017 25.6 (17:00) 9.9 (00:00) 17.8 11.67 (17:10) 6.11 (03:50) 0 0 0 0 0
15-10-2017 27.6 (15:40) 12 (00:00) 19.8 10 (14:00) 5.28 (15:50) 0 0 0 0 0
14-10-2017 27.2 (16:20) 9.6 (00:00) 18.4 9.72 (15:40) 4.72 (14:40) 0 0 0 0 0
13-10-2017 26.5 (15:00) 10.4 (00:00) 18.4 7.78 (01:40) 4.44 (13:20) 0 0 0 0 0
12-10-2017 25.8 (15:50) 6.9 (00:00) 16.3 11.39 (13:20) 4.72 (14:20) 0 0 0 0 0
11-10-2017 25.4 (14:40) 7.5 (00:00) 16.4 8.89 (15:10) 4.72 (15:20) 0 0 0 0 0
10-10-2017 26.6 (15:20) 7.5 (00:00) 17.1 8.89 (15:20) 5 (09:10) 0 0 0 0 0
09-10-2017 25.7 (16:10) 6.7 (00:00) 16.2 6.94 (06:10) 4.17 (06:10) 0 0 0 0 0
08-10-2017 27.1 (16:00) 7.6 (00:00) 17.4 -- (--) -- (--) 0 0 0 0 0
07-10-2017 26.5 (16:50) 5.9 (00:00) 16.2 6.39 (13:50) 4.44 (06:40) 0 0 0 0 0
06-10-2017 23.4 (16:10) 7.8 (00:00) 15.6 -- (--) -- (--) 0 0 0 0 0
05-10-2017 28.7 (14:30) 10.9 (00:00) 19.8 -- (--) -- (--) 0 0 0 0 0
04-10-2017 27.6 (17:50) 4.9 (00:00) 16.3 -- (--) -- (--) 0 0 0 0 0
03-10-2017 24.4 (16:30) 10.4 (00:00) 17.4 6.94 (15:30) 4.17 (17:30) 0 0 0 0 0
02-10-2017 27.1 (15:20) 13 (00:00) 20.1 7.5 (15:40) 4.17 (15:50) 0 0 0 0 0
01-10-2017 19.1 (18:30) 8.2 (00:00) 13.7 -- (--) -- (--) 0 0 0 0 0
30-09-2017 20.7 (14:00) 9.7 (00:00) 15.2 6.39 (17:20) 3.89 (09:20) 0 0 0 0 0
29-09-2017 26.6 (15:30) 10.1 (00:00) 18.4 12.5 (14:20) 5.28 (14:20) 0 0 0 0 0
28-09-2017 26.6 (15:00) 8.8 (00:00) 17.7 12.22 (14:40) 5.83 (14:40) 0 0 0 0 0
27-09-2017 26.7 (16:00) 7.3 (00:00) 17 9.44 (18:50) 4.17 (05:10) 0 0 0 0 0
26-09-2017 23.6 (16:30) 4 (00:00) 13.8 7.78 (14:30) 4.17 (04:30) 0 0 0 0 0
25-09-2017 20.8 (15:50) 7.2 (00:00) 14 8.06 (18:30) 4.17 (08:40) 1 1 0 0 0
24-09-2017 26.3 (15:50) 8.3 (00:00) 17.3 14.44 (22:20) 5.28 (22:30) 0 0 0 0 0
23-09-2017 26 (16:30) 6.6 (00:00) 16.3 9.72 (15:20) 5.28 (13:40) 0 0 0 0 0

Gráficas

Temp. máximas Temp. mínimas Temp. medias Precipitaciones Rachas de viento máximas Velocidades máximas media en intervalos de 10 minutos

Datos horarios

Fecha y hora oficial Temperatura (ºC) Velocidad del viento (km/h) Dirección del viento Racha (km/h) Dirección de racha Precipitación (mm) Presión (hPa) Tendencia (hPa) Humedad (%)
2017-10-22 23:00:00 3.9 4 Noroeste 15 Oeste 0 897.6 0.3 92
2017-10-22 22:00:00 4.3 6 Oeste 15 Oeste 0 897.6 0.9 90
2017-10-22 21:00:00 5.2 6 Este 12 Nordeste 0 897.5 1.2 85
2017-10-22 20:00:00 6.8 7 Nordeste 14 Sur 0 897.3 0.9 75
2017-10-22 19:00:00 9.9 10 Este 22 Sur 0 896.7 0.1 63
2017-10-22 18:00:00 14.4 17 Sur 24 Sur 0 896.3 -0.6 36
2017-10-22 17:00:00 15.6 13 Sur 27 Sur 0 896.4 -1 34
2017-10-22 16:00:00 15.5 13 Sudeste 26 Sur 0 896.6 -1.3 35
2017-10-22 15:00:00 15.8 10 Sur 23 Sur 0 896.9 -1.3 33
2017-10-22 14:00:00 14.8 5 Este 19 Oeste 0 897.4 -0.5 38
2017-10-22 13:00:00 12.4 8 Sudeste 27 Noroeste 0 897.9 0 45
2017-10-22 12:00:00 9.2 9 Oeste 15 Oeste 0 898.2 0.8 55
2017-10-22 11:00:00 6.4 5 Oeste 11 Oeste 0 897.9 0.8 68
2017-10-22 10:00:00 4.3 6 Noroeste 15 Noroeste 0 897.9 1 74
2017-10-22 09:00:00 1.7 8 Noroeste 13 Noroeste 0 897.4 1 84
2017-10-22 08:00:00 1 9 Noroeste 13 Noroeste 0 897.1 0.5 86
2017-10-22 07:00:00 1.8 5 Noroeste 12 Noroeste 0 896.9 0.2 82
2017-10-22 06:00:00 2.3 5 Noroeste 13 Noroeste 0 896.4 -0.3 80
2017-10-22 05:00:00 2.7 6 Noroeste 14 Oeste 0 896.6 -0.5 78
2017-10-22 04:00:00 3 6 Noroeste 15 Oeste 0 896.7 -0.4 77
2017-10-22 03:00:00 3.5 5 Noroeste 16 Oeste 0 896.7 -0.1 77
2017-10-22 02:00:00 3.9 5 Noroeste 17 Oeste 0 897.1 0.7 78
2017-10-22 01:00:00 4.6 5 Oeste 17 Oeste 0 897.1 1 81
2017-10-22 00:00:00 5.7 8 Norte 17 Oeste 0 896.8 0.8 81
2017-10-21 23:00:00 6.1 8 Norte 16 Noroeste 0 896.4 1 80
2017-10-21 22:00:00 6.6 6 Norte 17 Oeste 0 896.1 1.4 78
2017-10-21 21:00:00 7.7 7 Sur 13 Oeste 0 896 1.7 76
2017-10-21 20:00:00 8.4 7 Noroeste 17 Norte 0 895.4 1.7 73
2017-10-21 19:00:00 10.8 7 Norte 18 Nordeste 0 894.7 1.6 64
2017-10-21 18:00:00 12.6 7 Este 22 Sudeste 0 894.3 1.2 54
2017-10-21 17:00:00 13.4 10 Este 26 Este 0 893.7 0.6 51
2017-10-21 16:00:00 17.4 9 Sudeste 23 Sur 0 893.1 -0.2 35
2017-10-21 15:00:00 15.8 8 Nordeste 24 Sur 0 893.1 0 40
2017-10-21 14:00:00 17.5 11 Sur 28 Sur 0 893.1 0.1 36
2017-10-21 13:00:00 15.3 17 Sudoeste 35 Sur 0 893.3 0.9 30
2017-10-21 12:00:00 14.8 20 Sur 32 Sur 0 893.1 1.3 45
2017-10-21 11:00:00 14.6 9 Sudoeste 23 Sur 0 893 1.6 53
2017-10-21 10:00:00 10.7 12 Sudeste 26 Sur 0 892.4 1.4 88
2017-10-21 09:00:00 10.8 6 Sudeste 23 Sudoeste 0 891.8 1.4 85
2017-10-21 08:00:00 11.7 10 Sudoeste 30 Oeste 0 891.4 0.8 83
2017-10-21 07:00:00 12.2 8 Sudoeste 37 Sur 0.2 891 0.2 89
2017-10-21 06:00:00 12.5 17 Sudoeste 31 Sur 0.2 890.4 -0.6 88
2017-10-21 05:00:00 13.1 13 Sudoeste 35 Sudoeste 0 890.6 -0.1 78
2017-10-21 04:00:00 13.1 15 Sudoeste 40 Noroeste 0 890.8 0 76
2017-10-21 03:00:00 13.7 13 Sudoeste 41 Oeste 0 891 0.2 74
2017-10-21 02:00:00 14.2 15 Sudoeste 31 Sudoeste 0 890.7 0.2 73
2017-10-21 01:00:00 14.2 13 Sudoeste 40 Oeste 0 890.8 0.6 75
2017-10-21 00:00:00 14.5 12 Sudoeste 33 Oeste 0 890.8 0.5 75
2017-10-20 23:00:00 14.4 13 Sudoeste 32 Oeste 0 890.5 0.5 77
2017-10-20 22:00:00 13.9 3 Sur 20 Oeste 0 890.2 0.8 65
2017-10-20 21:00:00 14.3 5 Sudoeste 30 Oeste 0 890.3 0.8 63
2017-10-20 20:00:00 15.2 10 Sudoeste 33 Oeste 0 890 0.5 61
2017-10-20 19:00:00 16.4 8 Oeste 31 Oeste 0 889.4 0 55
2017-10-20 18:00:00 18.6 13 Sudoeste 34 Sur 0 889.5 0.3 47
2017-10-20 17:00:00 19.7 13 Sudoeste 40 Sur 0 889.5 0.1 41
2017-10-20 16:00:00 19.4 21 Sudoeste 39 Sur 0 889.4 -0.1 41
2017-10-20 15:00:00 19.6 17 Sudoeste 32 Sur 0 889.2 -0.2 42
2017-10-20 14:00:00 18.4 6 Sudoeste 28 Sur 0 889.4 0.1 37
2017-10-20 13:00:00 18.7 10 Sudoeste 29 Sur 0 889.5 0.7 43
2017-10-20 12:00:00 15.6 2 Norte 12 Nordeste 0 889.4 1.2 58
2017-10-20 11:00:00 13.3 5 Nordeste 16 Sur 0 889.3 1.7 70
2017-10-20 10:00:00 8.7 5 Este 15 Oeste 0 888.8 1.4 94
2017-10-20 09:00:00 7.4 5 Norte 13 Noroeste 0 888.2 1.2 94
2017-10-20 08:00:00 7.2 7 Sur 17 Oeste 0 887.6 0.4 93
2017-10-20 07:00:00 6.7 6 Nordeste 12 Oeste 0 887.4 0.2 92
2017-10-20 06:00:00 7 7 Norte 15 Oeste 0 887 0.1 92
2017-10-20 05:00:00 6.6 5 Sur 13 Sudoeste 0 887.2 0.4 92
2017-10-20 04:00:00 5.9 5 Noroeste 14 Oeste 0 887.2 0.7 91
2017-10-20 03:00:00 6.1 5 Norte 14 Oeste 0 886.9 0.6 89
2017-10-20 02:00:00 6.6 8 Este 14 Sur 0 886.8 0.9 87
2017-10-20 01:00:00 7.4 9 Sudeste 14 Sur 0 886.5 1.2 85
2017-10-20 00:00:00 7.2 7 Sur 19 Oeste 0 886.3 1.4 82
2017-10-19 23:00:00 7.3 6 Norte 23 Oeste 0 885.9 1.6 81
2017-10-19 22:00:00 8.6 7 Noroeste 21 Oeste 0 885.3 1.7 76
2017-10-19 21:00:00 9.2 6 Sudoeste 17 Sur 0 884.9 1.6 72
2017-10-19 20:00:00 10.4 4 Sur 20 Sur 0 884.3 1.6 65
2017-10-19 19:00:00 12.9 6 Sudoeste 26 Oeste 0 883.6 0.9 57
2017-10-19 18:00:00 13.1 12 Sudoeste 27 Sudoeste 0 883.3 0.3 54
2017-10-19 17:00:00 15.8 15 Sudoeste 29 Sudoeste 0 882.7 -0.6 43
2017-10-19 16:00:00 15.5 14 Sudoeste 27 Sur 0 882.7 -1 41
2017-10-19 15:00:00 15.1 13 Sudoeste 27 Sur 0 883 -0.6 41
2017-10-19 14:00:00 15.3 13 Sudoeste 25 Sur 0 883.3 -0.3 45
2017-10-19 13:00:00 14 6 Sur 21 Sur 0 883.7 0.6 52
2017-10-19 12:00:00 11.1 9 Sudoeste 17 Oeste 0 883.6 0.9 63
2017-10-19 11:00:00 7.8 3 Sur 14 Oeste 0 883.6 1.2 79
2017-10-19 10:00:00 4.1 2 Oeste 15 Noroeste 0 883.1 0.9 90
2017-10-19 09:00:00 1.6 3 Nordeste 15 Oeste 0 882.7 0.4 91
2017-10-19 08:00:00 2.3 9 Noroeste 15 Oeste 0 882.4 0.2 92
2017-10-19 07:00:00 2.8 10 Noroeste 16 Oeste 0 882.2 -0.2 93
2017-10-19 06:00:00 3.2 9 Noroeste 17 Oeste 0 882.3 0 92
2017-10-19 05:00:00 3 6 Noroeste 15 Oeste 0 882.2 0.1 93
2017-10-19 04:00:00 3.9 6 Noroeste 15 Oeste 0 882.4 0.2 92
2017-10-19 03:00:00 4.3 6 Noroeste 17 Oeste 0 882.3 -0.1 91
2017-10-19 02:00:00 5.1 6 Norte 18 Oeste 0 882.1 -0.2 88
2017-10-19 01:00:00 6 8 Oeste 18 Oeste 0 882.2 0.1 88
2017-10-19 00:00:00 6.4 12 Oeste 19 Oeste 0 882.4 0.6 86
2017-10-18 23:00:00 6.8 14 Oeste 19 Oeste 0 882.3 1.1 84
2017-10-18 22:00:00 7 14 Oeste 19 Oeste 0 882.1 1.5 82
2017-10-18 21:00:00 7.5 9 Noroeste 22 Oeste 0 881.8 1.3 80
2017-10-18 20:00:00 8.1 14 Oeste 22 Oeste 0 881.2 0.6 78
2017-10-18 19:00:00 9.3 5 Este 12 Sur 0 880.6 -0.1 81
2017-10-18 18:00:00 10 4 Este 21 Oeste 0 880.5 -0.5 77
2017-10-18 17:00:00 9.7 6 Oeste 19 Sur 0.4 880.6 -1 78
2017-10-18 16:00:00 10.9 11 Sudoeste 23 Sur 0 880.7 -1.3 71
2017-10-18 15:00:00 10.7 9 Sudoeste 21 Sur 0 881 -1 70
2017-10-18 14:00:00 10.2 7 Sudoeste 17 Sur 0.2 881.6 -0.8 76
2017-10-18 13:00:00 9.6 7 Sudoeste 21 Oeste 0 882 -0.6 78
2017-10-18 12:00:00 9.1 7 Sudoeste 29 Sudoeste 0.2 882 -0.5 81
2017-10-18 11:00:00 7.6 7 Sur 21 Sur 0 882.4 -0.3 89
2017-10-18 10:00:00 7.3 12 Sur 24 Sur 0.2 882.6 -0.3 88
2017-10-18 09:00:00 8.3 13 Sur 33 Sur 0 882.5 -0.5 79
2017-10-18 08:00:00 8.6 13 Sudoeste 33 Sudoeste 0 882.7 -1 71
2017-10-18 07:00:00 8.8 11 Sudoeste 40 Sudoeste 0 882.9 -1.5 68
2017-10-18 06:00:00 8.5 14 Sudoeste 30 Sur 0 883 -1.8 73
2017-10-18 05:00:00 8.3 14 Sudoeste 33 Sudoeste 0 883.7 -1.6 74
2017-10-18 04:00:00 8.7 10 Sudoeste 22 Sur 0 884.4 -1.5 72
2017-10-18 03:00:00 9.3 9 Sudoeste 22 Sur 0 884.8 -1.5 69
2017-10-18 02:00:00 10.1 15 Sudoeste 42 Sur 0 885.3 -1 68
2017-10-18 01:00:00 10.7 19 Sur 29 Sur 0 885.9 -0.6 78
2017-10-18 00:00:00 10.4 12 Sudoeste 24 Sur 0 886.3 -0.4 71
2017-10-17 23:00:00 11.2 11 Sudoeste 28 Sudoeste 0 886.3 -0.5 71
2017-10-17 22:00:00 11.7 17 Sudoeste 39 Sur 0 886.5 -0.2 71
2017-10-17 21:00:00 11.6 17 Sudoeste 36 Sudoeste 0 886.7 -0.4 74
2017-10-17 20:00:00 11.6 14 Sudoeste 41 Sudoeste 0 886.8 -0.6 80
2017-10-17 19:00:00 12.2 17 Sudoeste 35 Sur 1 886.7 -0.8 88
2017-10-17 18:00:00 12.7 22 Sur 56 Sur 0 887.1 -1.1 84
2017-10-17 17:00:00 12.4 21 Sur 58 Sur 0.6 887.4 -1.6 85
2017-10-17 16:00:00 13.1 15 Sur 33 Sur 0.4 887.5 -1.8 78
2017-10-17 15:00:00 14.2 21 Sur 31 Sur 0.2 888.2 -1.4 72
2017-10-17 14:00:00 13.3 14 Sudoeste 34 Sur 0.4 889 -1 77
2017-10-17 13:00:00 14.5 17 Sudoeste 33 Sur 0 889.3 -0.6 60
2017-10-17 12:00:00 14.4 15 Sur 32 Sur 0 889.6 -0.2 53
2017-10-17 11:00:00 13 16 Sudeste 34 Sur 0 890 -0.1 57
2017-10-17 10:00:00 12.9 18 Sur 35 Sur 0 889.9 -0.4 56
2017-10-17 09:00:00 12.5 18 Sur 35 Sur 0 889.8 -0.7 57
2017-10-17 08:00:00 12.8 17 Sur 30 Sur 0 890.1 -0.9 55
2017-10-17 07:00:00 12.9 12 Sur 36 Sur 0 890.3 -1.4 54
2017-10-17 06:00:00 13.7 16 Sur 38 Sur 0 890.5 -1.7 52
2017-10-17 05:00:00 14 17 Sudeste 41 Sur 0 891 -1.8 50
2017-10-17 04:00:00 11.2 9 Sudeste 22 Sur 0 891.7 -1.4 67
2017-10-17 03:00:00 11.9 5 Noroeste 20 Sudoeste 0 892.2 -1.4 68
2017-10-17 02:00:00 12.2 6 Sudeste 12 Sur 0 892.8 -0.9 73
2017-10-17 01:00:00 12.7 3 Noroeste 5 Oeste 0 893.1 -0.6 63
2017-10-17 00:00:00 13.5 0 Calma 7 Noroeste 0 893.6 0 61
2017-10-16 23:00:00 14.3 4 Este 15 Sur 0 893.7 0.4 60
2017-10-16 22:00:00 15.7 12 Sur 19 Sur 0 893.7 0.3 54
2017-10-16 21:00:00 15.8 9 Sudeste 21 Este 0 893.6 0.1 38
2017-10-16 20:00:00 17.8 10 Oeste 22 Oeste 0 893.3 -0.2 32
2017-10-16 19:00:00 20.4 11 Sudoeste 31 Oeste 0 893.4 -0.7 25
2017-10-16 18:00:00 23.1 13 Sudoeste 42 Sur 0 893.5 -1 21
2017-10-16 17:00:00 25.6 14 Sur 38 Sudoeste 0 893.5 -1.6 18
2017-10-16 16:00:00 23.8 13 Sur 33 Sur 0 894.1 -1.1 23
2017-10-16 15:00:00 22.8 13 Sur 32 Sur 0 894.5 -0.9 26
2017-10-16 14:00:00 22 14 Sur 33 Sur 0 895.1 -0.2 27
2017-10-16 13:00:00 21.9 12 Sur 27 Sur 0 895.2 0.4 28
2017-10-16 12:00:00 18.7 8 Sudeste 17 Sudeste 0 895.4 1.3 39
2017-10-16 11:00:00 16.4 6 Este 14 Nordeste 0 895.3 1.9 46
2017-10-16 10:00:00 12.3 6 Nordeste 13 Nordeste 0 894.8 1.7 58
2017-10-16 09:00:00 10.2 7 Nordeste 24 Sudoeste 0 894.1 1.3 64
2017-10-16 08:00:00 13.8 10 Sur 30 Sudoeste 0 893.4 0.8 50
2017-10-16 07:00:00 14 10 Sur 32 Sur 0 893.1 0.2 49
2017-10-16 06:00:00 14.5 9 Sur 35 Sur 0 892.8 -0.4 48
2017-10-16 05:00:00 14.3 11 Sur 37 Sur 0 892.6 -0.8 50
2017-10-16 04:00:00 15.4 15 Sur 41 Sur 0 892.9 -0.7 47
2017-10-16 03:00:00 15.6 19 Sur 40 Sur 0 893.2 -0.6 50
2017-10-16 02:00:00 16.4 16 Sur 37 Sur 0 893.4 -0.3 53
2017-10-16 01:00:00 15.4 8 Sur 27 Sur 0 893.6 -0.2 58
2017-10-16 00:00:00 16 12 Sur 27 Sur 0 893.8 -0.3 62
2017-10-15 23:00:00 16.7 16 Sur 26 Sur 0 893.7 0.2 54
2017-10-15 22:00:00 19.1 10 Sur 30 Sudoeste 0 893.8 0.2 36
2017-10-15 21:00:00 20.9 17 Sur 34 Sur 0 894.1 0.3 31
2017-10-15 20:00:00 20.2 5 Sudeste 18 Sudoeste 0 893.5 -0.6 30
2017-10-15 19:00:00 22.7 4 Sudeste 26 Sur 0 893.6 -1 26
2017-10-15 18:00:00 26.1 13 Sur 30 Sur 0 893.8 -1.3 20
2017-10-15 17:00:00 25.1 5 Sudoeste 28 Sur 0 894.1 -1.8 22
2017-10-15 16:00:00 25.5 15 Sudoeste 34 Sudoeste 0 894.6 -1.9 21
2017-10-15 15:00:00 24.7 12 Sudoeste 32 Sudoeste 0 895.1 -1.9 23
2017-10-15 14:00:00 24.5 18 Sur 36 Sur 0 895.9 -1.1 22
2017-10-15 13:00:00 24.6 8 Sudeste 15 Sudeste 0 896.5 -0.2 24
2017-10-15 12:00:00 19.6 4 Oeste 12 Oeste 0 897 0.8 35
2017-10-15 11:00:00 17.2 3 Sudeste 18 Sudoeste 0 897 1 42
2017-10-15 10:00:00 13.7 4 Este 10 Sudeste 0 896.7 0.6 54
2017-10-15 09:00:00 12.9 4 Noroeste 21 Oeste 0 896.2 0.4 52
2017-10-15 08:00:00 12.6 7 Noroeste 21 Oeste 0 896 0.2 52
2017-10-15 07:00:00 12.2 2 Oeste 10 Sur 0 896.1 0.2 57
2017-10-15 06:00:00 13.4 2 Oeste 12 Oeste 0 895.8 -0.4 49
2017-10-15 05:00:00 13.7 3 Norte 13 Oeste 0 895.8 -0.5 47
2017-10-15 04:00:00 13.9 7 Oeste 10 Noroeste 0 895.9 -0.4 46
2017-10-15 03:00:00 14.5 6 Noroeste 15 Noroeste 0 896.2 0 44
2017-10-15 02:00:00 14.6 7 Noroeste 17 Noroeste 0 896.3 0.3 43
2017-10-15 01:00:00 14.7 8 Oeste 19 Oeste 0 896.3 0.5 43
2017-10-15 00:00:00 15.1 8 Oeste 16 Oeste 0 896.2 0.5 41
2017-10-14 23:00:00 15.9 9 Noroeste 19 Oeste 0 896 0.9 38
2017-10-14 22:00:00 17 9 Oeste 19 Oeste 0 895.8 1.3 35
2017-10-14 21:00:00 18.4 8 Oeste 21 Oeste 0 895.7 1.4 31
2017-10-14 20:00:00 20.2 10 Sudoeste 21 Oeste 0 895.1 0.7 27
2017-10-14 19:00:00 23.4 8 Sudoeste 24 Sudoeste 0 894.5 0 23
2017-10-14 18:00:00 25.6 13 Sudoeste 24 Sudoeste 0 894.3 -0.5 21
2017-10-14 17:00:00 26.3 15 Sudoeste 29 Sudoeste 0 894.4 -1.1 19
2017-10-14 16:00:00 26.6 14 Sudoeste 35 Sur 0 894.5 -1.5 21
2017-10-14 15:00:00 26.3 11 Sudoeste 29 Sudoeste 0 894.8 -1.6 22
2017-10-14 14:00:00 26.1 14 Sur 25 Sur 0 895.5 -0.9 24
2017-10-14 13:00:00 24.5 10 Sudoeste 18 Sudoeste 0 896 -0.2 24
2017-10-14 12:00:00 21.3 9 Sudeste 16 Sur 0 896.4 0.6 36
2017-10-14 11:00:00 16.8 2 Nordeste 17 Oeste 0 896.4 0.9 45
2017-10-14 10:00:00 12.8 0 Calma 23 Oeste 0 896.2 0.7 57
2017-10-14 09:00:00 9.8 15 Oeste 22 Oeste 0 895.8 0.1 65
2017-10-14 08:00:00 9.8 5 Noroeste 23 Oeste 0 895.5 -0.3 62
2017-10-14 07:00:00 10.6 9 Noroeste 23 Oeste 0 895.5 -0.5 58
2017-10-14 06:00:00 11.1 9 Noroeste 24 Oeste 0 895.7 -0.7 56
2017-10-14 05:00:00 11 11 Noroeste 25 Oeste 0 895.8 -0.6 56
2017-10-14 04:00:00 12 8 Noroeste 24 Oeste 0 896 -0.7 51
2017-10-14 03:00:00 11.7 11 Noroeste 24 Oeste 0 896.4 -0.1 51
2017-10-14 02:00:00 12.3 7 Noroeste 24 Oeste 0 896.4 0.1 48
2017-10-14 01:00:00 12.6 9 Noroeste 26 Oeste 0 896.7 0.4 46
2017-10-14 00:00:00 13.1 6 Noroeste 15 Noroeste 0 896.5 0.4 45
2017-10-13 23:00:00 14.1 7 Noroeste 18 Oeste 0 896.3 0.6 42
2017-10-13 22:00:00 14.6 6 Noroeste 18 Oeste 0 896.3 0.8 42
2017-10-13 21:00:00 16.7 8 Oeste 18 Oeste 0 896.1 0.9 34
2017-10-13 20:00:00 19.1 8 Sudoeste 25 Sur 0 895.7 0.6 28
2017-10-13 19:00:00 22.4 12 Sur 25 Sur 0 895.5 0.3 23
2017-10-13 18:00:00 24.7 13 Sur 21 Sudeste 0 895.2 -0.5 20
2017-10-13 17:00:00 26 11 Sur 22 Sur 0 895.1 -1.1 17
2017-10-13 16:00:00 26.3 10 Sur 25 Sur 0 895.2 -1.6 18
2017-10-13 15:00:00 26.5 14 Sur 27 Sudeste 0 895.7 -1.3 19
2017-10-13 14:00:00 24.6 14 Sudeste 27 Sur 0 896.2 -0.6 22
2017-10-13 13:00:00 22.9 13 Sudeste 23 Sudeste 0 896.8 0.2 25
2017-10-13 12:00:00 21.3 11 Sudeste 17 Sudeste 0 897 0.7 25
2017-10-13 11:00:00 16.4 2 Oeste 6 Oeste 0 896.8 0.6 34
2017-10-13 10:00:00 12.2 3 Noroeste 21 Oeste 0 896.6 0.3 40
2017-10-13 09:00:00 11.1 5 Oeste 21 Oeste 0 896.3 0 40
2017-10-13 08:00:00 10.7 8 Noroeste 26 Oeste 0 896.2 -0.1 41
2017-10-13 07:00:00 11.1 9 Noroeste 24 Oeste 0 896.3 -0.1 40
2017-10-13 06:00:00 11.4 8 Noroeste 26 Oeste 0 896.3 -0.2 39
2017-10-13 05:00:00 12.4 9 Noroeste 22 Oeste 0 896.3 -0.2 35
2017-10-13 04:00:00 12.1 6 Noroeste 23 Oeste 0 896.4 -0.3 36
2017-10-13 03:00:00 12.2 10 Noroeste 25 Oeste 0 896.5 -0.2 37
2017-10-13 02:00:00 12.8 8 Noroeste 28 Oeste 0 896.5 -0.2 35
2017-10-13 01:00:00 13 9 Noroeste 21 Oeste 0 896.7 0 34
2017-10-13 00:00:00 13.9 10 Noroeste 24 Oeste 0 896.7 0.4 32
2017-10-12 23:00:00 14.1 7 Noroeste 15 Noroeste 0 896.7 0.5 32
2017-10-12 22:00:00 15.2 7 Noroeste 18 Oeste 0 896.7 0.8 30
2017-10-12 21:00:00 16.3 5 Oeste 19 Oeste 0 896.3 0.7 28
2017-10-12 20:00:00 18.7 6 Sudoeste 21 Oeste 0 896.2 0.6 22
2017-10-12 19:00:00 22.3 10 Sudoeste 22 Sudoeste 0 895.9 0.1 17
2017-10-12 18:00:00 24.4 12 Sudoeste 28 Sudoeste 0 895.6 -0.5 14
2017-10-12 17:00:00 25.3 14 Sudoeste 36 Sudoeste 0 895.6 -0.9 14
2017-10-12 16:00:00 25.7 14 Sudoeste 30 Sur 0 895.8 -1.1 14
2017-10-12 15:00:00 25.1 14 Sudoeste 33 Oeste 0 896.1 -0.8 14
2017-10-12 14:00:00 24.3 15 Sudoeste 41 Oeste 0 896.5 -0.2 16
2017-10-12 13:00:00 23.2 14 Sudoeste 30 Sudoeste 0 896.9 0.4 20
2017-10-12 12:00:00 22.3 9 Sudoeste 19 Sudoeste 0 896.9 0.8 20
2017-10-12 11:00:00 16.3 2 Este 20 Oeste 0 896.7 0.8 32
2017-10-12 10:00:00 10.9 5 Oeste 22 Oeste 0 896.5 0.9 45
2017-10-12 09:00:00 7.3 10 Oeste 22 Oeste 0 896.1 0.7 55
2017-10-12 08:00:00 7.8 13 Oeste 23 Oeste 0 895.9 0.5 52
2017-10-12 07:00:00 7.7 12 Noroeste 23 Oeste 0 895.6 0.2 52
2017-10-12 06:00:00 7.3 12 Noroeste 23 Noroeste 0 895.4 0 52
2017-10-12 05:00:00 7.5 12 Oeste 22 Oeste 0 895.4 0.1 52
2017-10-12 04:00:00 7.7 8 Oeste 21 Oeste 0 895.4 0.2 50
2017-10-12 03:00:00 9.6 7 Noroeste 23 Oeste 0 895.4 0.1 42
2017-10-12 02:00:00 9.7 6 Noroeste 23 Oeste 0 895.3 0.2 42
2017-10-12 01:00:00 9.6 5 Noroeste 22 Oeste 0 895.2 0.5 47
2017-10-12 00:00:00 9.8 10 Oeste 21 Oeste 0 895.3 1.3 51
2017-10-11 23:00:00 11.6 4 Noroeste 21 Oeste 0 895.1 1.7 48
2017-10-11 22:00:00 13.9 7 Noroeste 17 Noroeste 0 894.7 1.7 38
2017-10-11 21:00:00 15.6 6 Oeste 22 Sudoeste 0 894 1.3 26
2017-10-11 20:00:00 17.7 9 Sudoeste 25 Sudoeste 0 893.4 0.8 22
2017-10-11 19:00:00 21.8 12 Sudoeste 25 Sudoeste 0 893 0.3 15
2017-10-11 18:00:00 24.1 10 Sudoeste 28 Sudoeste 0 892.7 -0.1 12
2017-10-11 17:00:00 24.2 14 Sudoeste 27 Sudoeste 0 892.6 -0.5 11
2017-10-11 16:00:00 24.2 14 Sudoeste 32 Sur 0 892.7 -0.6 11
2017-10-11 15:00:00 24 15 Sudoeste 31 Sur 0 892.8 -0.5 12
2017-10-11 14:00:00 24 14 Sudoeste 30 Sudoeste 0 893.1 -0.2 14
2017-10-11 13:00:00 22.2 8 Sur 17 Sur 0 893.3 0.3 16
2017-10-11 12:00:00 17.5 4 Norte 9 Sur 0 893.3 0.9 27
2017-10-11 11:00:00 14.8 4 Este 19 Oeste 0 893.3 1.2 33
2017-10-11 10:00:00 10.7 6 Noroeste 24 Oeste 0 893 1 34
2017-10-11 09:00:00 9.4 11 Noroeste 23 Oeste 0 892.4 0.3 35
2017-10-11 08:00:00 8.7 10 Noroeste 25 Oeste 0 892.1 -0.1 38
2017-10-11 07:00:00 8.6 13 Oeste 22 Oeste 0 892 -0.3 39
2017-10-11 06:00:00 8.4 14 Noroeste 24 Oeste 0 892.1 -0.5 41
2017-10-11 05:00:00 9.3 9 Noroeste 24 Oeste 0 892.2 -0.4 37
2017-10-11 04:00:00 9.7 8 Noroeste 26 Oeste 0 892.3 -0.5 36
2017-10-11 03:00:00 10.5 13 Noroeste 26 Oeste 0 892.6 -0.3 35
2017-10-11 02:00:00 10.7 13 Noroeste 27 Oeste 0 892.6 -0.3 36
2017-10-11 01:00:00 11 12 Oeste 26 Oeste 0 892.8 0 35
2017-10-11 00:00:00 11.5 14 Noroeste 27 Oeste 0 892.9 0.6 35
2017-10-10 23:00:00 12.3 7 Noroeste 14 Oeste 0 892.9 1 34
2017-10-10 22:00:00 12.7 6 Noroeste 17 Oeste 0 892.8 1.5 36
2017-10-10 21:00:00 14.1 4 Oeste -- -- 0 892.3 1.5 34
2017-10-10 20:00:00 16.6 4 Sudoeste 16 Oeste 0 891.9 1.1 27
2017-10-10 19:00:00 22 7 Nordeste 26 Sur 0 891.3 0.4 19
2017-10-10 18:00:00 25.7 6 Sudoeste 24 Sudoeste 0 890.8 -0.5 11
2017-10-10 17:00:00 26.3 12 Sudoeste 27 Sudoeste 0 890.8 -1.2 11
2017-10-10 16:00:00 26.4 10 Sudoeste 32 Sudoeste 0 890.9 -1.6 10
2017-10-10 15:00:00 25.9 9 Sudoeste 28 Sur 0 891.3 -1.4 13
2017-10-10 14:00:00 25.2 14 Sudoeste 28 Sur 0 892 -1 14
2017-10-10 13:00:00 23.3 13 Sudeste 26 Sudeste 0 892.5 -0.3 16
2017-10-10 12:00:00 19.8 4 Este 13 Noroeste 0 892.7 0.2 26
2017-10-10 11:00:00 14.8 4 Noroeste 19 Oeste 0 893 1 34
2017-10-10 10:00:00 11.2 7 Noroeste 25 Noroeste 0 892.8 0.9 39
2017-10-10 09:00:00 8 17 Oeste 25 Noroeste 0 892.5 0.7 51
2017-10-10 08:00:00 7.7 13 Oeste 24 Oeste 0 892 0 51
2017-10-10 07:00:00 8.6 14 Noroeste 24 Oeste 0 891.9 -0.4 48
2017-10-10 06:00:00 8.6 12 Noroeste 24 Oeste 0 891.8 -0.8 49
2017-10-10 05:00:00 9 11 Noroeste 26 Noroeste 0 892 -0.6 48
2017-10-10 04:00:00 9.2 13 Noroeste 25 Oeste 0 892.3 -0.4 48
2017-10-10 03:00:00 9.2 13 Noroeste 24 Oeste 0 892.6 -0.2 50
2017-10-10 02:00:00 8.7 7 Noroeste 19 Oeste 0 892.6 -0.3 54
2017-10-10 01:00:00 10.1 5 Noroeste 19 Oeste 0 892.7 0 48
2017-10-10 00:00:00 11 9 Noroeste 19 Oeste 0 892.8 0.2 44
2017-10-09 23:00:00 11.4 6 Noroeste 13 Noroeste 0 892.9 0.6 43
2017-10-09 22:00:00 11.7 4 Noroeste 23 Oeste 0 892.7 0.8 45
2017-10-09 21:00:00 13.9 5 Noroeste 16 Oeste 0 892.6 1.1 36
2017-10-09 20:00:00 16.2 4 Oeste 19 Noroeste 0 892.3 0.7 30
2017-10-09 19:00:00 21.7 3 Este 17 Nordeste 0 891.9 0.1 22
2017-10-09 18:00:00 24.6 8 Sudeste 15 Sudeste 0 891.5 -0.7 15
2017-10-09 17:00:00 25.5 6 Sudeste 18 Sur 0 891.6 -1.3 13
2017-10-09 16:00:00 25.4 10 Sudeste 23 Sudeste 0 891.8 -1.4 13
2017-10-09 15:00:00 25 10 Sudeste 23 Sudeste 0 892.2 -1.3 14
2017-10-09 14:00:00 24.3 9 Sudeste 21 Sudeste 0 892.9 -0.6 14
2017-10-09 13:00:00 23.7 8 Sudeste 23 Sudeste 0 893.2 -0.2 15
2017-10-09 12:00:00 21.3 6 Este 12 Sudeste 0 893.5 0.4 20
2017-10-09 11:00:00 16.1 3 Oeste 21 Oeste 0 893.5 0.7 25
2017-10-09 10:00:00 11.5 6 Noroeste 23 Oeste 0 893.4 0.6 29
2017-10-09 09:00:00 9.5 10 Noroeste 23 Oeste 0 893.1 0.4 30
2017-10-09 08:00:00 8.5 11 Noroeste 24 Noroeste 0 892.8 -0.1 32
2017-10-09 07:00:00 7.6 11 Noroeste 25 Oeste 0 892.8 -0.3 37
2017-10-09 06:00:00 8.9 14 Noroeste 23 Oeste 0 892.7 -0.6 33
2017-10-09 05:00:00 7.7 14 Noroeste 24 Oeste 0 892.9 -0.6 40
2017-10-09 04:00:00 7.7 6 Noroeste 21 Oeste 0 893.1 -0.6 40
2017-10-09 03:00:00 8.6 6 Noroeste 20 Oeste 0 893.3 -0.4 41
2017-10-09 02:00:00 9.8 4 Noroeste 23 Oeste 0 893.5 -0.2 36
2017-10-09 01:00:00 10.5 8 Noroeste 22 Oeste 0 893.7 0.1 38
2017-10-09 00:00:00 10.7 6 Noroeste 23 Oeste 0 893.7 0.3 38
2017-10-08 23:00:00 11.3 4 Noroeste 19 Oeste 0 893.7 0.7 37
2017-10-08 22:00:00 12.1 5 Noroeste 8 Noroeste 0 893.6 1.1 35
2017-10-08 21:00:00 12.8 6 Noroeste 15 Noroeste 0 893.4 1.2 34
2017-10-08 20:00:00 15.6 9 Noroeste -- -- 0 893 0.9 28
2017-10-08 19:00:00 20.6 9 Norte 20 Norte 0 892.5 0.3 18
2017-10-08 18:00:00 24.7 7 Nordeste -- -- 0 892.2 -0.5 13
2017-10-08 17:00:00 25 -- -- -- -- 0 892.1 -1.2 11
2017-10-08 16:00:00 26.8 -- -- -- -- 0 892.2 -1.2 9
2017-10-08 15:00:00 25.2 -- -- -- -- 0 892.7 -0.9 10
2017-10-08 14:00:00 25.6 9 Sudeste 18 Sudeste 0 893.3 -0.3 10
2017-10-08 13:00:00 23.8 9 Sudeste 17 Sudeste 0 893.4 0.1 12
2017-10-08 12:00:00 21.1 6 Sudeste 12 Sur 0 893.6 0.6 15
2017-10-08 11:00:00 16.5 2 Sudoeste 5 Sudoeste 0 893.6 0.6 24
2017-10-08 10:00:00 12.5 4 Norte 21 Oeste 0 893.3 0.2 29
2017-10-08 09:00:00 9.5 11 Noroeste 24 Oeste 0 893 0 32
2017-10-08 08:00:00 9.1 10 Noroeste 24 Oeste 0 893 0.2 33
2017-10-08 07:00:00 8.3 8 Noroeste 20 Oeste 0 893.1 0.1 36
2017-10-08 06:00:00 7.9 7 Noroeste 24 Oeste 0 893 -0.4 38
2017-10-08 05:00:00 10.4 8 Noroeste 26 Oeste 0 892.8 -0.8 31
2017-10-08 04:00:00 10.9 8 Noroeste 28 Oeste 0 893 -0.7 32
2017-10-08 03:00:00 9.9 7 Noroeste 19 Oeste 0 893.4 -0.4 33
2017-10-08 02:00:00 11.4 7 Noroeste 20 Oeste 0 893.6 0.1 30
2017-10-08 01:00:00 11.4 4 Noroeste 18 Oeste 0 893.7 0.4 31
2017-10-08 00:00:00 11.8 8 Noroeste 17 Noroeste 0 893.8 0.4 30
2017-10-07 23:00:00 11.9 4 Noroeste 15 Noroeste 0 893.5 0.4 29
2017-10-07 22:00:00 13.6 6 Noroeste 18 Oeste 0 893.3 0.6 25
2017-10-07 21:00:00 14.3 5 Noroeste 19 Noroeste 0 893.4 0.8 25
2017-10-07 20:00:00 16.8 9 Oeste -- -- 0 893.1 0.4 21
2017-10-07 19:00:00 22.3 5 Este 17 Sudeste 0 892.7 -0.4 15
2017-10-07 18:00:00 23.7 13 Sudeste 22 Sudeste 0 892.6 -0.9 9
2017-10-07 17:00:00 26.1 8 Nordeste 18 Nordeste 0 892.7 -1.4 11
2017-10-07 16:00:00 26.1 6 Nordeste 19 Este 0 893.1 -1.3 9
2017-10-07 15:00:00 25.2 9 Este 19 Sur 0 893.5 -1 9
2017-10-07 14:00:00 23.8 7 Sudeste 23 Sur 0 894.1 -0.4 10
2017-10-07 13:00:00 21.9 12 Sudeste 21 Sur 0 894.4 -0.1 11
2017-10-07 12:00:00 21.5 6 Sudeste 15 Nordeste 0 894.5 -0.1 13
2017-10-07 11:00:00 18.8 3 Este 17 Noroeste 0 894.5 -0.1 11
2017-10-07 10:00:00 13.2 8 Noroeste 19 Oeste 0 894.5 -0.1 10
2017-10-07 09:00:00 7.9 4 Noroeste 19 Oeste 0 894.6 0.2 15
2017-10-07 08:00:00 6.9 6 Noroeste 19 Oeste 0 894.6 0 16
2017-10-07 07:00:00 7.4 12 Oeste 22 Oeste 0 894.6 -0.3 15
2017-10-07 06:00:00 7.3 13 Oeste 21 Oeste 0 894.4 -0.9 17
2017-10-07 05:00:00 9.7 8 Noroeste 22 Oeste 0 894.6 -0.8 11
2017-10-07 04:00:00 6.6 14 Oeste 23 Oeste 0 894.9 -0.7 29
2017-10-07 03:00:00 6.7 3 Oeste 15 Oeste 0 895.3 -0.5 31
2017-10-07 02:00:00 8 3 Nordeste 19 Sudoeste 0 895.4 -0.3 29
2017-10-07 01:00:00 8 12 Oeste 23 Oeste 0 895.6 0.2 46
2017-10-07 00:00:00 9.5 6 Noroeste 18 Oeste 0 895.8 0.3 48
2017-10-06 23:00:00 10 5 Noroeste 18 Oeste 0 895.7 0.5 42
2017-10-06 22:00:00 9.8 8 Norte 15 Noroeste 0 895.4 0.6 80
2017-10-06 21:00:00 10.2 2 Norte 12 Noroeste 0 895.5 1 81
2017-10-06 20:00:00 12.2 4 Nordeste 28 Nordeste 0 895.2 0.6 73
2017-10-06 19:00:00 15.4 14 Norte 34 Norte 0 894.8 0 61
2017-10-06 18:00:00 18.4 16 Norte 33 Norte 0 894.5 -0.7 48
2017-10-06 17:00:00 21.6 14 Norte 31 Norte 0 894.6 -0.7 33
2017-10-06 16:00:00 23.1 11 Nordeste 31 Nordeste 0 894.8 -1 29
2017-10-06 15:00:00 21.9 14 Norte 38 Noroeste 0 895.2 -0.7 32
2017-10-06 14:00:00 21.6 14 Norte 33 Norte 0 895.3 -0.4 33
2017-10-06 13:00:00 20.9 12 Norte -- -- 0 895.8 0.3 35
2017-10-06 12:00:00 20 11 Norte -- -- 0 895.9 1 33
2017-10-06 11:00:00 17.2 4 Este 19 Sur 0 895.7 0.8 43
2017-10-06 10:00:00 14 5 Este 16 Noroeste 0 895.5 0.8 45
2017-10-06 09:00:00 13 8 Noroeste 21 Oeste 0 894.9 0.4 41
2017-10-06 08:00:00 11.3 8 Norte 18 Noroeste 0 894.9 0.2 25
2017-10-06 07:00:00 11.6 10 Norte 19 Noroeste 0 894.7 -0.4 25
2017-10-06 06:00:00 13 13 Norte 26 Norte 0 894.5 -0.8 23
2017-10-06 05:00:00 8 -- -- -- -- 0 894.7 -0.7 68
2017-10-06 04:00:00 8.3 5 Sur 18 Sudoeste 0 895.1 -0.5 78
2017-10-06 03:00:00 9.4 2 Sudeste 19 Sudoeste 0 895.3 -0.3 75
2017-10-06 02:00:00 9.4 3 Nordeste 19 Oeste 0 895.4 -0.2 71
2017-10-06 01:00:00 9.7 3 Sur 18 Sudoeste 0 895.6 0.1 84
2017-10-06 00:00:00 10.9 3 Nordeste 10 Oeste 0 895.6 0.2 74
2017-10-05 23:00:00 12.3 5 Noroeste 16 Noroeste 0 895.6 0.6 70
2017-10-05 22:00:00 13.3 5 Noroeste 18 Noroeste 0 895.5 0.8 60
2017-10-05 21:00:00 14.4 3 Sudoeste 17 Oeste 0 895.4 1 69
2017-10-05 20:00:00 16 5 Noroeste 23 Noroeste 0 895 0.6 65
2017-10-05 19:00:00 20 12 Norte 29 Norte 0 894.7 0.3 50
2017-10-05 18:00:00 23.7 -- -- -- -- 0 894.4 -0.2 36
2017-10-05 17:00:00 26.4 8 Nordeste -- -- 0 894.4 -0.7 30
2017-10-05 16:00:00 27.4 9 Nordeste 26 Norte 0 894.4 -1.1 26
2017-10-05 15:00:00 28.4 -- -- -- -- 0 894.6 -1.1 22
2017-10-05 14:00:00 27.9 12 Sudeste 20 Sudeste 0 895.1 -0.4 23
2017-10-05 13:00:00 27.1 9 Este -- -- 0 895.5 0.2 24
2017-10-05 12:00:00 25 4 Este 18 Oeste 0 895.7 0.8 27
2017-10-05 11:00:00 19.6 6 Oeste 16 Oeste 0 895.5 0.6 41
2017-10-05 10:00:00 14.8 3 Noroeste -- -- 0 895.3 0.7 55
2017-10-05 09:00:00 13.3 9 Noroeste 15 Noroeste 0 894.9 0.2 56
2017-10-05 08:00:00 12.5 10 Noroeste 24 Oeste 0 894.9 0.1 59
2017-10-05 07:00:00 12.4 10 Noroeste 23 Oeste 0 894.6 -0.5 61
2017-10-05 06:00:00 12.6 9 Noroeste 21 Oeste 0 894.7 -0.9 58
2017-10-05 05:00:00 11.9 10 Noroeste 28 Oeste 0 894.8 -0.7 62
2017-10-05 04:00:00 12.6 9 Noroeste -- -- 0 895.1 -0.4 60
2017-10-05 03:00:00 12.7 8 Noroeste 17 Noroeste 0 895.6 0 61
2017-10-05 02:00:00 12.9 6 Noroeste 10 Noroeste 0 895.5 0 62
2017-10-05 01:00:00 13.5 8 Oeste 15 Oeste 0 895.5 0.3 60
2017-10-05 00:00:00 14 9 Noroeste 22 Oeste 0 895.6 0.8 58
2017-10-04 23:00:00 16.1 -- -- -- -- 0 895.5 1.3 48
2017-10-04 22:00:00 16.7 -- -- -- -- 0 895.2 1.2 47
2017-10-04 21:00:00 18.9 5 Oeste -- -- 0 894.8 0.9 38
2017-10-04 20:00:00 20.6 6 Sudoeste 21 Sudoeste 0 894.2 0.4 34
2017-10-04 19:00:00 25.2 9 Sudoeste 23 Sudoeste 0 894 0 27
2017-10-04 18:00:00 27.5 8 Sudoeste -- -- 0 893.9 -0.4 24
2017-10-04 17:00:00 27.5 10 Sur -- -- 0 893.8 -1 23
2017-10-04 16:00:00 26.8 -- -- -- -- 0 894 -1.5 27
2017-10-04 15:00:00 26.9 11 Sudoeste 25 Sur 0 894.3 -1.3 25
2017-10-04 14:00:00 25.3 12 Sur 26 Sur 0 894.8 -0.6 29
2017-10-04 13:00:00 23.6 9 Este 19 Sur 0 895.5 0.4 34
2017-10-04 12:00:00 19.5 4 Nordeste 11 Noroeste 0 895.6 1 44
2017-10-04 11:00:00 14.7 3 Nordeste 18 Sur 0 895.4 0.9 60
2017-10-04 10:00:00 9.9 5 Sudeste -- -- 0 895.1 0.8 77
2017-10-04 09:00:00 7.9 -- -- -- -- 0 894.6 0.1 74
2017-10-04 08:00:00 6.1 12 Noroeste 21 Oeste 0 894.5 0 87
2017-10-04 07:00:00 5.4 7 Norte 19 Oeste 0 894.3 -0.4 88
2017-10-04 06:00:00 6.2 13 Noroeste 19 Oeste 0 894.5 -0.6 89
2017-10-04 05:00:00 6.7 10 Oeste 21 Oeste 0 894.5 -0.9 88
2017-10-04 04:00:00 8.4 9 Noroeste 25 Oeste 0 894.7 -0.9 89
2017-10-04 03:00:00 8 6 Noroeste 21 Oeste 0 895.1 -0.5 93
2017-10-04 02:00:00 9.8 8 Noroeste 25 Oeste 0 895.4 0.1 93
2017-10-04 01:00:00 10.8 7 Noroeste 20 Oeste 0 895.6 0.6 93
2017-10-04 00:00:00 10.8 5 Este 11 Noroeste 0 895.6 1 87
2017-10-03 23:00:00 12.6 4 Noroeste 15 Noroeste 0 895.3 0.9 88
2017-10-03 22:00:00 13.5 8 Noroeste 15 Noroeste 0 895 0.6 84
2017-10-03 21:00:00 14.5 4 Oeste 17 Sur 0 894.6 1 77
2017-10-03 20:00:00 16.5 9 Sur 17 Sur 0 894.4 0.8 68
2017-10-03 19:00:00 18.6 13 Sudeste 24 Sudeste 0 894.4 0.6 62
2017-10-03 18:00:00 21.1 12 Este 24 Sudeste 0 893.6 -0.6 51
2017-10-03 17:00:00 24.1 11 Este 25 Sur 0 893.6 -1.7 41
2017-10-03 16:00:00 23.7 14 Sudeste 25 Sudeste 0 893.8 -1.6 41
2017-10-03 15:00:00 23.2 10 Sudeste 21 Sudeste 0 894.2 -1.6 44
2017-10-03 14:00:00 21.5 9 Sudeste 21 Sudeste 0 895.3 -0.2 53
2017-10-03 13:00:00 19.6 8 Sudeste 19 Sur 0 895.4 0 61
2017-10-03 12:00:00 17.2 4 Nordeste 13 Sudeste 0 895.8 0.8 72
2017-10-03 11:00:00 15.6 4 Sudeste 17 Sur 0 895.5 1.1 91
2017-10-03 10:00:00 12.5 9 Sur 18 Sur 0 895.4 0.9 95
2017-10-03 09:00:00 11.9 5 Norte 17 Oeste 0 895 0.3 95
2017-10-03 08:00:00 11 4 Oeste 18 Oeste 0 894.4 -0.1 94
2017-10-03 07:00:00 11.3 2 Este 13 Sudoeste 0 894.5 -0.4 93
2017-10-03 06:00:00 11.8 4 Norte 17 Oeste 0 894.7 -0.6 93
2017-10-03 05:00:00 12.5 4 Oeste 17 Noroeste 0 894.5 -1.1 91
2017-10-03 04:00:00 12.6 5 Oeste 16 Oeste 0 894.9 -1.1 91
2017-10-03 03:00:00 12.9 5 Noroeste 18 Oeste 0 895.3 -1.1 91
2017-10-03 02:00:00 13.8 4 Noroeste 14 Noroeste 0 895.6 -0.9 91
2017-10-03 01:00:00 14.1 5 Noroeste 13 Oeste 0 896 -0.5 90
2017-10-03 00:00:00 14.8 7 Noroeste 17 Oeste 0 896.4 -0.1 90
2017-10-02 23:00:00 15 6 Noroeste 16 Oeste 0 896.5 0.4 89
2017-10-02 22:00:00 16 6 Sudeste 12 Sur 0 896.5 1 84
2017-10-02 21:00:00 17 7 Sudeste 21 Sur 0 896.5 1.1 77
2017-10-02 20:00:00 19.5 12 Este 21 Sudeste 0 896.1 0.3 69
2017-10-02 19:00:00 23.6 12 Este 21 Sudeste 0 895.5 -0.8 51
2017-10-02 18:00:00 25.4 9 Este 20 Sudeste 0 895.4 -1.1 46
2017-10-02 17:00:00 26.1 8 Este 23 Sudeste 0 895.8 -1.5 44
2017-10-02 16:00:00 25.7 14 Este 27 Sudeste 0 896.3 -1.2 45
2017-10-02 15:00:00 26.5 10 Sudeste 19 Sudeste 0 896.5 -0.9 40
2017-10-02 14:00:00 25 7 Nordeste 21 Nordeste 0 897.3 -0.1 46
2017-10-02 13:00:00 22.5 13 Norte 23 Norte 0 897.5 0.3 54
2017-10-02 12:00:00 20.9 10 Norte 20 Norte 0 897.4 0.6 62
2017-10-02 11:00:00 18.4 3 Sur 12 Oeste 0 897.4 0.8 73
2017-10-02 10:00:00 15.7 2 Noroeste 12 Oeste 0 897.2 0.8 85
2017-10-02 09:00:00 14.7 3 Oeste 11 Oeste 0 896.8 0.5 78
2017-10-02 08:00:00 14.6 2 Oeste 12 Noroeste 0 896.6 0.4 77
2017-10-02 07:00:00 14.7 6 Oeste 15 Oeste 0 896.4 0.1 74
2017-10-02 06:00:00 14.8 4 Oeste 14 Oeste 0 896.3 -0.2 74
2017-10-02 05:00:00 13.8 4 Noroeste 13 Noroeste 0 896.2 -0.1 73
2017-10-02 04:00:00 13.7 8 Noroeste 15 Noroeste 0 896.3 -0.1 78
2017-10-02 03:00:00 14.1 4 Noroeste 11 Noroeste 0 896.5 0.1 78
2017-10-02 02:00:00 14 5 Noroeste 14 Noroeste 0 896.3 -0.1 77
2017-10-02 01:00:00 13.7 5 Noroeste 10 Oeste 0 896.4 0.1 77
2017-10-02 00:00:00 13 4 Oeste 11 Noroeste 0 896.4 0.5 79
2017-10-01 23:00:00 13.2 4 Noroeste 13 Noroeste 0 896.4 0.8 80
2017-10-01 22:00:00 13.7 5 Noroeste 15 Oeste 0 896.3 0.8 75
2017-10-01 21:00:00 14.7 9 Sur 11 Sur 0 895.9 0.8 69
2017-10-01 20:00:00 16.8 6 Este 13 Oeste 0 895.6 0.6 61
2017-10-01 19:00:00 18.8 3 Sudeste 13 Sur 0 895.5 0.3 53
2017-10-01 18:00:00 18.8 7 Sur 14 Sur 0 895.1 -0.4 53
2017-10-01 17:00:00 18.5 6 Sudeste 13 Sur 0 895 -0.6 54
2017-10-01 16:00:00 18.4 6 Sudeste 14 Sur 0 895.2 -0.3 55
2017-10-01 15:00:00 17.3 5 Sudeste 13 Sur 0 895.5 0.3 58
2017-10-01 14:00:00 17.3 6 Sudeste 13 Sur 0 895.6 0.8 57
2017-10-01 13:00:00 17.3 5 Este 14 Sur 0 895.5 1 58
2017-10-01 12:00:00 16.8 6 Sudeste 11 Sudeste 0 895.2 0.7 61
2017-10-01 11:00:00 14 7 Sudoeste 20 Sudoeste 0 894.8 0.8 72
2017-10-01 10:00:00 10.8 11 Oeste 22 Oeste 0 894.5 1 87
2017-10-01 09:00:00 8.3 -- -- -- -- 0 894.5 1 92
2017-10-01 08:00:00 8.4 4 Norte 18 Oeste 0 894 0.5 92
2017-10-01 07:00:00 8.7 5 Este 15 Sudoeste 0 893.5 0 90
2017-10-01 06:00:00 9.7 4 Noroeste -- -- 0 893.5 0 89
2017-10-01 05:00:00 8.6 -- -- -- -- 0 893.5 -0.2 94
2017-10-01 04:00:00 8.6 4 Norte 15 Oeste 0 893.5 0.1 94
2017-10-01 03:00:00 8.7 10 Sudoeste 14 Sur 0 893.5 -0.1 93
2017-10-01 02:00:00 8.5 5 Este 17 Sur 0 893.7 -0.2 92
2017-10-01 01:00:00 9.6 4 Noroeste -- -- 0 893.4 -0.2 91
2017-10-01 00:00:00 9.8 4 Oeste 19 Oeste 0 893.6 0.6 89
2017-09-30 23:00:00 10.3 4 Norte 11 Norte 0 893.9 1.2 88
2017-09-30 22:00:00 10.6 5 Norte 16 Noroeste 0 893.6 1.2 87
2017-09-30 21:00:00 11.4 6 Norte 16 Noroeste 0 893 0.6 83
2017-09-30 20:00:00 13.4 3 Nordeste 15 Norte 0 892.7 0.7 73
2017-09-30 19:00:00 15.5 3 Nordeste 17 Sudeste 0 892.4 0.5 67
2017-09-30 18:00:00 15.9 12 Sudeste 23 Este 0 892.4 0.4 67
2017-09-30 17:00:00 17.1 12 Sudeste 21 Sudeste 0 892 -0.3 61
2017-09-30 16:00:00 18 6 Sudeste 20 Sur 0 891.9 -0.9 58
2017-09-30 15:00:00 19.1 8 Este 22 Nordeste 0 892 -1.2 54
2017-09-30 14:00:00 20.7 9 Sudeste 20 Sudeste 0 892.3 -1 51
2017-09-30 13:00:00 17 9 Sudeste 17 Sudeste 0 892.8 -0.2 65
2017-09-30 12:00:00 13.8 3 Este 18 Sudoeste 0 893.2 0.4 82
2017-09-30 11:00:00 12.2 10 Sur 17 Sudoeste 0 893.3 0.6 93
2017-09-30 10:00:00 11.5 0 Calma 17 Sudoeste 0 893 0.4 94
2017-09-30 09:00:00 11.1 3 Sudoeste 15 Sudoeste 0 892.8 0.3 94
2017-09-30 08:00:00 10.7 3 Este 14 Sudoeste 0 892.7 0.1 93
2017-09-30 07:00:00 10.5 4 Este 16 Oeste 0 892.6 -0.1 92
2017-09-30 06:00:00 10.4 8 Oeste 17 Oeste 0 892.5 -0.6 92
2017-09-30 05:00:00 10.5 5 Noroeste 18 Oeste 0 892.6 -0.5 92
2017-09-30 04:00:00 10.8 0 Calma 18 Oeste 0 892.7 -0.9 92
2017-09-30 03:00:00 10.9 3 Noroeste 6 Oeste 0 893.1 -0.4 92
2017-09-30 02:00:00 11.6 4 Norte 10 Oeste 0 893.1 -0.4 91
2017-09-30 01:00:00 11.2 4 Noroeste 15 Oeste 0 893.6 0.1 89
2017-09-30 00:00:00 11.7 4 Noroeste 16 Sudoeste 0 893.5 0.2 90
2017-09-29 23:00:00 12.5 4 Sudeste 14 Noroeste 0 893.5 0.5 86
2017-09-29 22:00:00 13.5 8 Noroeste 24 Noroeste 0 893.5 1 83
2017-09-29 21:00:00 14.2 2 Noroeste 23 Noroeste 0 893.3 1.1 77
2017-09-29 20:00:00 16.5 14 Norte 23 Noroeste 0 893 0.5 66
2017-09-29 19:00:00 22.7 10 Sudoeste 21 Sudoeste 0 892.5 0 21
2017-09-29 18:00:00 23.4 9 Sudoeste 25 Oeste 0 892.2 -0.5 21
2017-09-29 17:00:00 26 15 Sudoeste -- -- 0 892.5 -0.7 18
2017-09-29 16:00:00 25.3 -- -- -- -- 0 892.5 -1.2 23
2017-09-29 15:00:00 25.9 14 Sudoeste 45 Sur 0 892.7 -1.5 26
2017-09-29 14:00:00 24.8 12 Sudoeste 33 Sur 0 893.2 -1.2 28
2017-09-29 13:00:00 24.7 14 Sur 25 Sur 0 893.7 -0.7 28
2017-09-29 12:00:00 22.3 12 Sudeste 21 Sur 0 894.2 0 32
2017-09-29 11:00:00 18.7 10 Sudeste 19 Sudeste 0 894.4 0.4 43
2017-09-29 10:00:00 14.1 2 Sudeste 21 Oeste 0 894.4 0.7 50
2017-09-29 09:00:00 11.6 8 Noroeste 25 Oeste 0 894.2 0.6 52
2017-09-29 08:00:00 10.6 12 Oeste 23 Oeste 0 894 0.3 55
2017-09-29 07:00:00 10.4 9 Noroeste 23 Oeste 0 893.7 -0.3 55
2017-09-29 06:00:00 10.7 9 Noroeste 24 Oeste 0 893.6 -0.6 53
2017-09-29 05:00:00 10.8 8 Noroeste 22 Oeste 0 893.7 -0.5 53
2017-09-29 04:00:00 10.8 5 Noroeste 24 Oeste 0 894 -0.3 53
2017-09-29 03:00:00 10.9 9 Oeste 23 Oeste 0 894.2 -0.3 53
2017-09-29 02:00:00 12.6 4 Noroeste 19 Noroeste 0 894.2 -0.4 47
2017-09-29 01:00:00 13.9 11 Noroeste 21 Oeste 0 894.3 -0.2 42
2017-09-29 00:00:00 14 10 Noroeste 18 Noroeste 0 894.5 0.2 43
2017-09-28 23:00:00 13.9 9 Noroeste 17 Oeste 0 894.6 0.6 44
2017-09-28 22:00:00 15.9 12 Noroeste 19 Oeste 0 894.5 0.8 36
2017-09-28 21:00:00 17.3 5 Sudoeste 13 Sudoeste 0 894.3 0.9 33
2017-09-28 20:00:00 19.7 8 Sudoeste 23 Sur 0 894 0.5 28
2017-09-28 19:00:00 24.4 9 Sudoeste 27 Sur 0 893.7 0 21
2017-09-28 18:00:00 25.3 13 Sudoeste 29 Sudoeste 0 893.4 -0.6 20
2017-09-28 17:00:00 25.7 13 Sudoeste 31 Sur 0 893.5 -1 19
2017-09-28 16:00:00 26.1 17 Sudoeste -- -- 0 893.7 -1.1 18
2017-09-28 15:00:00 26.4 13 Sudoeste 44 Sur 0 894 -1 20
2017-09-28 14:00:00 25.1 12 Sudoeste 27 Sudeste 0 894.5 -0.6 22
2017-09-28 13:00:00 22.5 14 Sur 27 Sur 0 894.8 0 28
2017-09-28 12:00:00 21.6 13 Sudeste 27 Sudeste 0 895 0.6 31
2017-09-28 11:00:00 17.2 9 Sudeste 17 Este 0 895.1 1.2 41
2017-09-28 10:00:00 11.5 4 Sudoeste 21 Oeste 0 894.8 1 57
2017-09-28 09:00:00 9.9 10 Noroeste 22 Oeste 0 894.4 0.8 60
2017-09-28 08:00:00 9.7 8 Noroeste 21 Oeste 0 893.9 0.2 58
2017-09-28 07:00:00 10 6 Noroeste 23 Oeste 0 893.8 0.1 55
2017-09-28 06:00:00 9.9 12 Noroeste 24 Oeste 0 893.6 -0.2 56
2017-09-28 05:00:00 9.6 9 Noroeste 23 Oeste 0 893.7 0.2 58
2017-09-28 04:00:00 10.2 9 Noroeste 22 Oeste 0 893.7 0.3 59
2017-09-28 03:00:00 10.6 10 Noroeste 23 Oeste 0 893.8 0.3 60
2017-09-28 02:00:00 10.9 9 Oeste 21 Oeste 0 893.5 0.2 53
2017-09-28 01:00:00 12.1 6 Noroeste 23 Oeste 0 893.4 0.4 51
2017-09-28 00:00:00 12.5 8 Noroeste 22 Oeste 0 893.5 1 51
2017-09-27 23:00:00 12.9 8 Noroeste 17 Oeste 0 893.3 1.6 61
2017-09-27 22:00:00 14.9 7 Noroeste 18 Noroeste 0 893 1.6 53
2017-09-27 21:00:00 16.3 7 Noroeste 24 Sur 0 892.5 1.3 32
2017-09-27 20:00:00 19.7 9 Sudoeste 23 Sudoeste 0 891.7 0.8 25
2017-09-27 19:00:00 23.7 12 Sudoeste 34 Sudoeste 0 891.4 0.3 20
2017-09-27 18:00:00 24.7 10 Sudoeste 25 Sudoeste 0 891.2 0 18
2017-09-27 17:00:00 26.3 12 Sudoeste 26 Sudoeste 0 890.9 -0.5 18
2017-09-27 16:00:00 26.7 12 Sudoeste 29 Sur 0 891.1 -0.4 18
2017-09-27 15:00:00 25.9 14 Sudoeste 31 Sudoeste 0 891.2 -0.7 20
2017-09-27 14:00:00 25.3 11 Sudoeste 24 Sudoeste 0 891.4 -0.6 21
2017-09-27 13:00:00 23.8 9 Sur 16 Sudoeste 0 891.5 -0.4 25
2017-09-27 12:00:00 20.9 7 Este 13 Noroeste 0 891.9 0.1 32
2017-09-27 11:00:00 15.8 4 Nordeste 18 Sudoeste 0 892 0.6 48
2017-09-27 10:00:00 11.3 5 Noroeste 19 Oeste 0 891.9 0.8 60
2017-09-27 09:00:00 7.7 4 Norte 20 Oeste 0 891.8 0.7 75
2017-09-27 08:00:00 7.4 4 Noroeste 22 Oeste 0 891.4 0.2 74
2017-09-27 07:00:00 8.3 6 Noroeste 22 Oeste 0 891.1 -0.3 70
2017-09-27 06:00:00 8.5 6 Noroeste 22 Oeste 0 891.1 -0.6 70
2017-09-27 05:00:00 8.7 12 Noroeste 23 Oeste 0 891.2 -0.7 72
2017-09-27 04:00:00 9 12 Noroeste 25 Oeste 0 891.4 -0.7 76
2017-09-27 03:00:00 9.5 10 Noroeste 24 Oeste 0 891.7 -0.6 74
2017-09-27 02:00:00 9.6 14 Oeste 26 Oeste 0 891.9 -0.5 76
2017-09-27 01:00:00 10.1 9 Oeste 22 Oeste 0 892.1 -0.1 74
2017-09-27 00:00:00 10.7 8 Noroeste 23 Oeste 0 892.3 0.4 73
2017-09-26 23:00:00 11.2 9 Oeste 21 Oeste 0 892.4 1.2 79
2017-09-26 22:00:00 12.8 4 Nordeste 14 Sur 0 892.2 1.4 68
2017-09-26 21:00:00 14.7 11 Sur 18 Sur 0 891.9 1.4 53
2017-09-26 20:00:00 17.9 9 Sur 18 Sudeste 0 891.2 0.4 39
2017-09-26 19:00:00 21.1 12 Sudeste 21 Sudeste 0 890.8 -0.4 32
2017-09-26 18:00:00 22.7 9 Sudeste 22 Sur 0 890.5 -1.2 29
2017-09-26 17:00:00 23 15 Sudeste 25 Sudeste 0 890.8 -1.5 27
2017-09-26 16:00:00 22.9 12 Sur 27 Sudeste 0 891.2 -1.6 28
2017-09-26 15:00:00 21.6 12 Sudeste 28 Sur 0 891.7 -1.2 32
2017-09-26 14:00:00 20.6 10 Sudeste 21 Sur 0 892.3 -0.7 40
2017-09-26 13:00:00 18.7 11 Sudeste 26 Sur 0 892.8 -0.2 47
2017-09-26 12:00:00 16.6 9 Sudeste 19 Sur 0 892.9 -0.2 56
2017-09-26 11:00:00 12.3 7 Este 17 Oeste 0 893 0 75
2017-09-26 10:00:00 7.2 11 Oeste 18 Oeste 0 893 0 94
2017-09-26 09:00:00 4.8 8 Oeste -- -- 0 893.1 0.2 94
2017-09-26 08:00:00 4.1 6 Oeste 18 Oeste 0 893 -0.3 94
2017-09-26 07:00:00 4.3 6 Oeste 17 Oeste 0 893 -0.6 94
2017-09-26 06:00:00 4.8 9 Oeste 19 Oeste 0 892.9 -0.8 93
2017-09-26 05:00:00 5.9 12 Oeste 20 Oeste 0 893.3 -0.3 93
2017-09-26 04:00:00 6.5 8 Oeste 17 Oeste 0 893.6 -0.2 93
2017-09-26 03:00:00 7 8 Sudeste 20 Oeste 0 893.7 -0.1 92
2017-09-26 02:00:00 7.9 8 Noroeste 21 Oeste 0 893.6 -0.2 92
2017-09-26 01:00:00 8.2 8 Oeste 19 Oeste 0 893.8 0 91
2017-09-26 00:00:00 8.7 6 Norte 10 Norte 0 893.8 0 89
2017-09-25 23:00:00 9.4 4 Noroeste 19 Oeste 0 893.8 0.2 86
2017-09-25 22:00:00 10.1 6 Noroeste 18 Oeste 0 893.8 0.6 86
2017-09-25 21:00:00 10.7 8 Norte 19 Norte 0 893.8 0.8 84
2017-09-25 20:00:00 12 8 Norte 26 Norte 0 893.6 0.5 77
2017-09-25 19:00:00 13.9 11 Norte 29 Norte 0 893.2 0.2 70
2017-09-25 18:00:00 15.7 11 Norte 24 Norte 0 893 0 61
2017-09-25 17:00:00 17.4 6 Nordeste 18 Noroeste 0 893.1 0 53
2017-09-25 16:00:00 20 6 Sudeste 18 Sur 0 893 -0.1 41
2017-09-25 15:00:00 19.5 7 Norte 26 Sudoeste 0 893 -0.1 42
2017-09-25 14:00:00 19.3 8 Sudeste 27 Sur 0 893.1 0 43
2017-09-25 13:00:00 18.6 5 Sur 19 Sur 0 893.1 0.4 46
2017-09-25 12:00:00 16.4 6 Nordeste 18 Oeste 0 893.1 0.6 55
2017-09-25 11:00:00 14.4 4 Oeste 21 Oeste 0 893.1 1.1 57
2017-09-25 10:00:00 10.6 13 Oeste 23 Oeste 0 892.7 1.1 75
2017-09-25 09:00:00 8.3 12 Noroeste 22 Oeste 0 892.5 0.9 87
2017-09-25 08:00:00 8 4 Norte 17 Oeste 0 892 0.6 85
2017-09-25 07:00:00 8.2 5 Noroeste 19 Oeste 0 891.6 0.1 84
2017-09-25 06:00:00 8.5 9 Oeste 19 Oeste 0 891.6 -0.2 83
2017-09-25 05:00:00 9.5 6 Noroeste 17 Sudoeste 0 891.4 -0.3 78
2017-09-25 04:00:00 10.2 6 Oeste 23 Oeste 0 891.5 -0.1 73
2017-09-25 03:00:00 9.6 8 Noroeste 23 Oeste 0 891.8 -0.5 79
2017-09-25 02:00:00 9.6 5 Oeste 18 Sudoeste 0.2 891.7 0.3 81
2017-09-25 01:00:00 10.3 4 Noroeste 19 Oeste 0.8 891.6 0.5 80
2017-09-25 00:00:00 14.4 8 Noroeste 26 Norte 0 892.3 1.6 39
2017-09-24 23:00:00 18.8 9 Sudoeste 52 Sudoeste 0 891.4 0.8 27
2017-09-24 22:00:00 19.5 17 Sudoeste 40 Oeste 0 891.1 0.4 21
2017-09-24 21:00:00 18.4 7 Sudoeste 23 Sur 0 890.7 -0.1 24
2017-09-24 20:00:00 20.2 7 Oeste 20 Sur 0 890.6 -0.5 22
2017-09-24 19:00:00 22.4 10 Sudoeste 31 Sudoeste 0 890.7 -0.7 16
2017-09-24 18:00:00 24.5 19 Sudoeste 42 Sur 0 890.8 -0.7 14
2017-09-24 17:00:00 26.3 13 Sudoeste 35 Sudoeste 0 891.1 -0.9 13
2017-09-24 16:00:00 26 16 Sudoeste 38 Sur 0 891.4 -0.9 15
2017-09-24 15:00:00 25.3 15 Sudoeste 35 Sudoeste 0 891.5 -1 21
2017-09-24 14:00:00 24.9 9 Sudoeste 31 Sur 0 892 -0.4 23
2017-09-24 13:00:00 23.3 12 Sudoeste 29 Oeste 0 892.3 0.2 26
2017-09-24 12:00:00 22.6 8 Sudoeste 32 Sudoeste 0 892.5 0.8 30
2017-09-24 11:00:00 19.7 14 Sudoeste 35 Sudoeste 0 892.4 0.8 36
2017-09-24 10:00:00 13 4 Sudoeste 20 Oeste 0 892.1 0.6 67
2017-09-24 09:00:00 9.3 4 Noroeste 20 Oeste 0 891.7 0.1 85
2017-09-24 08:00:00 8.6 8 Oeste 22 Oeste 0 891.6 -0.2 88
2017-09-24 07:00:00 8.8 10 Noroeste -- -- 0 891.5 -0.6 83
2017-09-24 06:00:00 9.4 8 Oeste 22 Oeste 0 891.6 -0.8 80
2017-09-24 05:00:00 10.1 8 Noroeste 20 Oeste 0 891.8 -0.5 75
2017-09-24 04:00:00 10.7 5 Noroeste 19 Oeste 0 892.1 -0.3 71
2017-09-24 03:00:00 11.2 6 Noroeste 21 Oeste 0 892.4 0.2 67
2017-09-24 02:00:00 12.2 7 Noroeste 21 Oeste 0 892.3 0.1 61
2017-09-24 01:00:00 12.4 7 Noroeste 16 Oeste 0 892.4 0.5 60
2017-09-24 00:00:00 13 6 Oeste 15 Noroeste 0 892.2 0.5 59
2017-09-23 23:00:00 13.3 7 Noroeste 19 Oeste 0 892.2 1.1 63
2017-09-23 22:00:00 14.4 3 Oeste -- -- 0 891.9 1.1 53
2017-09-23 21:00:00 17.1 14 Oeste 18 Oeste 0 891.7 1.2 35
2017-09-23 20:00:00 19.4 8 Sudoeste 19 Oeste 0 891.1 0.7 30
2017-09-23 19:00:00 22.8 10 Sudoeste 25 Sudoeste 0 890.8 0.1 25
2017-09-23 18:00:00 23.9 14 Sudoeste 30 Sudoeste 0 890.5 -0.4 23
2017-09-23 17:00:00 25.4 12 Sudoeste 32 Sudoeste 0 890.4 -0.9 22
2017-09-23 16:00:00 25.7 10 Sudoeste 35 Sudoeste 0 890.7 -0.7 21
2017-09-23 15:00:00 25.2 11 Sudoeste 31 Sudoeste 0 890.9 -0.9 23
2017-09-23 14:00:00 24.6 12 Sur -- -- 0 891.3 -0.3 29
2017-09-23 13:00:00 23 14 Sur 23 Sur 0 891.4 -0.1 31
2017-09-23 12:00:00 19.6 8 Este 18 Este 0 891.8 0.6 54
2017-09-23 11:00:00 15.6 7 Sudeste 19 Sur 0 891.6 0.5 67
2017-09-23 10:00:00 10.2 9 Oeste 20 Oeste 0 891.5 0.6 90
2017-09-23 09:00:00 8.3 12 Noroeste 21 Oeste 0 891.2 0.3 93
2017-09-23 08:00:00 7.5 13 Oeste 24 Oeste 0 891.1 0 94
2017-09-23 07:00:00 7.3 10 Oeste 22 Oeste 0 890.9 -0.7 93
2017-09-23 06:00:00 7.3 9 Noroeste -- -- 0 890.9 -1.2 93
2017-09-23 05:00:00 6.7 15 Oeste 21 Oeste 0 891.1 -1.2 92
2017-09-23 04:00:00 8.3 5 Noroeste 19 Oeste 0 891.6 -0.9 92
2017-09-23 03:00:00 8.5 5 Noroeste 22 Oeste 0 892.1 -0.4 90
2017-09-23 02:00:00 8.9 8 Noroeste 21 Oeste 0 892.3 -0.1 90
2017-09-23 01:00:00 9.7 9 Oeste 19 Oeste 0 892.5 0.2 90
2017-09-23 00:00:00 10 8 Noroeste 22 Oeste 0 892.5 0.6 88